Townsend, Tennessee
Current Conditions -  °F | °C
As of 9:53 AM on Sunday 23 Nov 2014 (Local Time) from KTYS Reporting Station
Overcast Overcast  
Wind Chill: 48°   Ceiling: 8000
Heat Index: 48°   Visibility: 10mi
Dew Point: 35°   Wind: 0mph
Humidity: 61%   Direction: NA
Pressure: 29.99"   Gusts: NA
Location:  35.68°N, 83.76°W
Report Text: KTYS 231453Z 00000KT 10SM OVC080 09/02 A2999 RMK AO2 SLP156 T00890017 57016
Loading
Personal Weather Stations






























Interactive Weather Map New forecast layout! Learn more

10-Day Weather Forecast

Advertisements
Track Severe Weather on mobile